sensor_id;sensor_type;location;lat;lon;timestamp;temperature;humidity
48752;DHT22;34544;48.836;9.174;2023-04-06T00:00:50;1.30;99.90
48752;DHT22;34544;48.836;9.174;2023-04-06T00:03:16;1.40;99.90
48752;DHT22;34544;48.836;9.174;2023-04-06T00:05:42;1.40;99.90
48752;DHT22;34544;48.836;9.174;2023-04-06T00:08:08;1.40;99.90
48752;DHT22;34544;48.836;9.174;2023-04-06T00:10:33;1.40;99.90
48752;DHT22;34544;48.836;9.174;2023-04-06T00:12:59;1.20;99.90
48752;DHT22;34544;48.836;9.174;2023-04-06T00:15:26;1.20;99.90
48752;DHT22;34544;48.836;9.174;2023-04-06T00:17:52;1.10;99.90
48752;DHT22;34544;48.836;9.174;2023-04-06T00:20:18;1.10;99.90
48752;DHT22;34544;48.836;9.174;2023-04-06T00:22:44;1.10;99.90
48752;DHT22;34544;48.836;9.174;2023-04-06T00:25:10;1.00;99.90
48752;DHT22;34544;48.836;9.174;2023-04-06T00:27:37;1.00;99.90
48752;DHT22;34544;48.836;9.174;2023-04-06T00:30:04;1.00;99.90
48752;DHT22;34544;48.836;9.174;2023-04-06T00:32:31;1.00;99.90
48752;DHT22;34544;48.836;9.174;2023-04-06T00:34:57;1.00;99.90
48752;DHT22;34544;48.836;9.174;2023-04-06T00:37:23;1.00;99.90
48752;DHT22;34544;48.836;9.174;2023-04-06T00:39:48;1.00;99.90
48752;DHT22;34544;48.836;9.174;2023-04-06T00:42:18;1.00;99.90
48752;DHT22;34544;48.836;9.174;2023-04-06T00:44:58;1.00;99.90
48752;DHT22;34544;48.836;9.174;2023-04-06T00:47:24;1.00;99.90
48752;DHT22;34544;48.836;9.174;2023-04-06T00:49:51;1.00;99.90
48752;DHT22;34544;48.836;9.174;2023-04-06T00:52:17;1.00;99.90
48752;DHT22;34544;48.836;9.174;2023-04-06T00:54:45;0.90;99.90
48752;DHT22;34544;48.836;9.174;2023-04-06T00:57:12;0.90;99.90
48752;DHT22;34544;48.836;9.174;2023-04-06T00:59:39;0.90;99.90
48752;DHT22;34544;48.836;9.174;2023-04-06T01:02:08;0.90;99.90
48752;DHT22;34544;48.836;9.174;2023-04-06T01:04:41;0.80;99.90
48752;DHT22;34544;48.836;9.174;2023-04-06T01:07:13;0.80;99.90
48752;DHT22;34544;48.836;9.174;2023-04-06T01:09:47;0.80;99.90
48752;DHT22;34544;48.836;9.174;2023-04-06T01:12:19;0.70;99.90
48752;DHT22;34544;48.836;9.174;2023-04-06T01:14:45;0.70;99.90
48752;DHT22;34544;48.836;9.174;2023-04-06T01:17:11;0.70;99.90
48752;DHT22;34544;48.836;9.174;2023-04-06T01:19:38;0.60;99.90
48752;DHT22;34544;48.836;9.174;2023-04-06T01:22:06;0.60;99.90
48752;DHT22;34544;48.836;9.174;2023-04-06T01:24:32;0.60;99.90
48752;DHT22;34544;48.836;9.174;2023-04-06T01:27:06;0.50;99.90
48752;DHT22;34544;48.836;9.174;2023-04-06T01:29:50;0.50;99.90
48752;DHT22;34544;48.836;9.174;2023-04-06T01:32:30;0.50;99.90
48752;DHT22;34544;48.836;9.174;2023-04-06T01:34:57;0.50;99.90
48752;DHT22;34544;48.836;9.174;2023-04-06T01:37:22;0.40;99.90
48752;DHT22;34544;48.836;9.174;2023-04-06T01:39:51;0.40;99.90
48752;DHT22;34544;48.836;9.174;2023-04-06T01:42:25;0.40;99.90
48752;DHT22;34544;48.836;9.174;2023-04-06T01:44:51;0.40;99.90
48752;DHT22;34544;48.836;9.174;2023-04-06T01:47:17;0.40;99.90
48752;DHT22;34544;48.836;9.174;2023-04-06T01:49:43;0.40;99.90
48752;DHT22;34544;48.836;9.174;2023-04-06T01:52:09;0.30;99.90
48752;DHT22;34544;48.836;9.174;2023-04-06T01:54:38;0.30;99.90
48752;DHT22;34544;48.836;9.174;2023-04-06T01:57:15;0.20;99.90
48752;DHT22;34544;48.836;9.174;2023-04-06T01:59:45;0.20;99.90
48752;DHT22;34544;48.836;9.174;2023-04-06T02:02:19;0.20;99.90
48752;DHT22;34544;48.836;9.174;2023-04-06T02:04:54;0.10;99.90
48752;DHT22;34544;48.836;9.174;2023-04-06T02:07:20;0.10;99.90
48752;DHT22;34544;48.836;9.174;2023-04-06T02:09:46;0.10;99.90
48752;DHT22;34544;48.836;9.174;2023-04-06T02:12:20;0.10;99.90
48752;DHT22;34544;48.836;9.174;2023-04-06T02:14:46;0.10;99.90
48752;DHT22;34544;48.836;9.174;2023-04-06T02:17:11;0.10;99.90
48752;DHT22;34544;48.836;9.174;2023-04-06T02:19:37;0.10;99.90
48752;DHT22;34544;48.836;9.174;2023-04-06T02:22:03;0.10;99.90
48752;DHT22;34544;48.836;9.174;2023-04-06T02:24:28;0.10;99.90
48752;DHT22;34544;48.836;9.174;2023-04-06T02:26:54;0.00;99.90
48752;DHT22;34544;48.836;9.174;2023-04-06T02:29:20;0.00;99.90
48752;DHT22;34544;48.836;9.174;2023-04-06T02:31:46;0.00;99.90
48752;DHT22;34544;48.836;9.174;2023-04-06T02:34:12;0.00;99.90
48752;DHT22;34544;48.836;9.174;2023-04-06T02:36:45;0.00;99.90
48752;DHT22;34544;48.836;9.174;2023-04-06T02:39:11;0.00;99.90
48752;DHT22;34544;48.836;9.174;2023-04-06T02:41:37;-0.10;99.90
48752;DHT22;34544;48.836;9.174;2023-04-06T02:44:05;-0.10;99.90
48752;DHT22;34544;48.836;9.174;2023-04-06T02:46:37;-0.10;99.90
48752;DHT22;34544;48.836;9.174;2023-04-06T02:49:03;-0.10;99.90
48752;DHT22;34544;48.836;9.174;2023-04-06T02:51:31;-0.10;99.90
48752;DHT22;34544;48.836;9.174;2023-04-06T02:54:07;-0.10;99.90
48752;DHT22;34544;48.836;9.174;2023-04-06T02:56:33;-0.10;99.90
48752;DHT22;34544;48.836;9.174;2023-04-06T02:58:58;-0.10;99.90
48752;DHT22;34544;48.836;9.174;2023-04-06T03:01:28;-0.20;99.90
48752;DHT22;34544;48.836;9.174;2023-04-06T03:03:58;-0.20;99.90
48752;DHT22;34544;48.836;9.174;2023-04-06T03:06:26;-0.20;99.90
48752;DHT22;34544;48.836;9.174;2023-04-06T03:08:55;-0.20;99.90
48752;DHT22;34544;48.836;9.174;2023-04-06T03:11:21;-0.20;99.90
48752;DHT22;34544;48.836;9.174;2023-04-06T03:13:49;-0.30;99.90
48752;DHT22;34544;48.836;9.174;2023-04-06T03:16:15;-0.30;99.90
48752;DHT22;34544;48.836;9.174;2023-04-06T03:18:41;-0.30;99.90
48752;DHT22;34544;48.836;9.174;2023-04-06T03:21:07;-0.30;99.90
48752;DHT22;34544;48.836;9.174;2023-04-06T03:23:52;-0.30;99.90
48752;DHT22;34544;48.836;9.174;2023-04-06T03:26:18;-0.30;99.90
48752;DHT22;34544;48.836;9.174;2023-04-06T03:28:44;-0.30;99.90
48752;DHT22;34544;48.836;9.174;2023-04-06T03:31:10;-0.30;99.90
48752;DHT22;34544;48.836;9.174;2023-04-06T03:34:04;-0.30;99.90
48752;DHT22;34544;48.836;9.174;2023-04-06T03:36:34;-0.40;99.90
48752;DHT22;34544;48.836;9.174;2023-04-06T03:39:02;-0.40;99.90
48752;DHT22;34544;48.836;9.174;2023-04-06T03:41:30;-0.40;99.90
48752;DHT22;34544;48.836;9.174;2023-04-06T03:44:16;-0.40;99.90
48752;DHT22;34544;48.836;9.174;2023-04-06T03:46:43;-0.40;99.90
48752;DHT22;34544;48.836;9.174;2023-04-06T03:49:10;-0.40;99.90
48752;DHT22;34544;48.836;9.174;2023-04-06T03:51:35;-0.40;99.90
48752;DHT22;34544;48.836;9.174;2023-04-06T03:54:01;-0.40;99.90
48752;DHT22;34544;48.836;9.174;2023-04-06T03:56:27;-0.40;99.90
48752;DHT22;34544;48.836;9.174;2023-04-06T03:58:53;-0.40;99.90
48752;DHT22;34544;48.836;9.174;2023-04-06T04:01:20;-0.40;99.90
48752;DHT22;34544;48.836;9.174;2023-04-06T04:03:46;-0.40;99.90
48752;DHT22;34544;48.836;9.174;2023-04-06T04:06:13;-0.50;99.90
48752;DHT22;34544;48.836;9.174;2023-04-06T04:08:40;-0.50;99.90
48752;DHT22;34544;48.836;9.174;2023-04-06T04:11:07;-0.50;99.90
48752;DHT22;34544;48.836;9.174;2023-04-06T04:13:33;-0.50;99.90
48752;DHT22;34544;48.836;9.174;2023-04-06T04:16:01;-0.50;99.90
48752;DHT22;34544;48.836;9.174;2023-04-06T04:18:27;-0.50;99.90
48752;DHT22;34544;48.836;9.174;2023-04-06T04:20:52;-0.50;99.90
48752;DHT22;34544;48.836;9.174;2023-04-06T04:23:20;-0.50;99.90
48752;DHT22;34544;48.836;9.174;2023-04-06T04:25:46;-0.50;99.90
48752;DHT22;34544;48.836;9.174;2023-04-06T04:28:12;-0.40;99.90
48752;DHT22;34544;48.836;9.174;2023-04-06T04:30:39;-0.40;99.90
48752;DHT22;34544;48.836;9.174;2023-04-06T04:33:08;-0.50;99.90
48752;DHT22;34544;48.836;9.174;2023-04-06T04:35:34;-0.50;99.90
48752;DHT22;34544;48.836;9.174;2023-04-06T04:38:00;-0.50;99.90
48752;DHT22;34544;48.836;9.174;2023-04-06T04:40:26;-0.50;99.90
48752;DHT22;34544;48.836;9.174;2023-04-06T04:43:00;-0.60;99.90
48752;DHT22;34544;48.836;9.174;2023-04-06T04:45:30;-0.60;99.90
48752;DHT22;34544;48.836;9.174;2023-04-06T04:47:59;-0.60;99.90
48752;DHT22;34544;48.836;9.174;2023-04-06T04:50:31;-0.70;99.90
48752;DHT22;34544;48.836;9.174;2023-04-06T04:52:58;-0.60;99.90
48752;DHT22;34544;48.836;9.174;2023-04-06T04:55:26;-0.60;99.90
48752;DHT22;34544;48.836;9.174;2023-04-06T04:57:54;-0.60;99.90
48752;DHT22;34544;48.836;9.174;2023-04-06T05:00:26;-0.60;99.90
48752;DHT22;34544;48.836;9.174;2023-04-06T05:02:55;-0.60;99.90
48752;DHT22;34544;48.836;9.174;2023-04-06T05:05:30;-0.60;99.90
48752;DHT22;34544;48.836;9.174;2023-04-06T05:07:56;-0.50;99.90
48752;DHT22;34544;48.836;9.174;2023-04-06T05:10:44;-0.50;99.90
48752;DHT22;34544;48.836;9.174;2023-04-06T05:13:10;-0.50;99.90
48752;DHT22;34544;48.836;9.174;2023-04-06T05:15:36;-0.50;99.90
48752;DHT22;34544;48.836;9.174;2023-04-06T05:18:11;-0.40;99.90
48752;DHT22;34544;48.836;9.174;2023-04-06T05:20:39;-0.40;99.90
48752;DHT22;34544;48.836;9.174;2023-04-06T05:23:05;-0.30;99.90
48752;DHT22;34544;48.836;9.174;2023-04-06T05:25:32;-0.30;99.90
48752;DHT22;34544;48.836;9.174;2023-04-06T05:28:06;-0.30;99.90
48752;DHT22;34544;48.836;9.174;2023-04-06T05:30:35;-0.20;99.90
48752;DHT22;34544;48.836;9.174;2023-04-06T05:33:02;-0.20;99.90
48752;DHT22;34544;48.836;9.174;2023-04-06T05:35:36;-0.10;99.90
48752;DHT22;34544;48.836;9.174;2023-04-06T05:38:09;-0.10;99.90
48752;DHT22;34544;48.836;9.174;2023-04-06T05:40:38;0.00;99.90
48752;DHT22;34544;48.836;9.174;2023-04-06T05:43:07;0.10;99.90
48752;DHT22;34544;48.836;9.174;2023-04-06T05:45:34;0.20;99.90
48752;DHT22;34544;48.836;9.174;2023-04-06T05:48:02;0.20;99.90
48752;DHT22;34544;48.836;9.174;2023-04-06T05:50:29;0.30;99.90
48752;DHT22;34544;48.836;9.174;2023-04-06T05:52:56;0.40;99.90
48752;DHT22;34544;48.836;9.174;2023-04-06T05:55:25;0.50;99.90
48752;DHT22;34544;48.836;9.174;2023-04-06T05:58:03;0.60;99.90
48752;DHT22;34544;48.836;9.174;2023-04-06T06:00:29;0.70;99.90
48752;DHT22;34544;48.836;9.174;2023-04-06T06:03:02;0.80;99.90
48752;DHT22;34544;48.836;9.174;2023-04-06T06:05:30;0.90;99.90
48752;DHT22;34544;48.836;9.174;2023-04-06T06:08:02;1.00;99.90
48752;DHT22;34544;48.836;9.174;2023-04-06T06:10:29;1.20;99.90
48752;DHT22;34544;48.836;9.174;2023-04-06T06:12:55;1.30;99.90
48752;DHT22;34544;48.836;9.174;2023-04-06T06:15:21;1.40;99.90
48752;DHT22;34544;48.836;9.174;2023-04-06T06:17:47;1.50;99.90
48752;DHT22;34544;48.836;9.174;2023-04-06T06:20:13;1.60;99.90
48752;DHT22;34544;48.836;9.174;2023-04-06T06:22:39;1.70;99.90
48752;DHT22;34544;48.836;9.174;2023-04-06T06:25:08;1.80;99.90
48752;DHT22;34544;48.836;9.174;2023-04-06T06:27:34;1.90;99.90
48752;DHT22;34544;48.836;9.174;2023-04-06T06:29:59;2.00;99.90
48752;DHT22;34544;48.836;9.174;2023-04-06T06:32:28;2.10;99.90
48752;DHT22;34544;48.836;9.174;2023-04-06T06:34:54;2.20;99.90
48752;DHT22;34544;48.836;9.174;2023-04-06T06:37:19;2.40;99.90
48752;DHT22;34544;48.836;9.174;2023-04-06T06:39:46;2.50;99.90
48752;DHT22;34544;48.836;9.174;2023-04-06T06:42:12;2.60;99.90
48752;DHT22;34544;48.836;9.174;2023-04-06T06:45:01;2.70;99.90
48752;DHT22;34544;48.836;9.174;2023-04-06T06:47:26;2.90;99.90
48752;DHT22;34544;48.836;9.174;2023-04-06T06:49:52;3.00;99.90
48752;DHT22;34544;48.836;9.174;2023-04-06T06:52:18;3.10;99.90
48752;DHT22;34544;48.836;9.174;2023-04-06T06:54:44;3.30;99.90
48752;DHT22;34544;48.836;9.174;2023-04-06T06:57:10;3.40;99.90
48752;DHT22;34544;48.836;9.174;2023-04-06T06:59:36;3.50;99.90
48752;DHT22;34544;48.836;9.174;2023-04-06T07:02:02;3.60;99.90
48752;DHT22;34544;48.836;9.174;2023-04-06T07:04:28;3.80;99.90
48752;DHT22;34544;48.836;9.174;2023-04-06T07:06:54;3.90;99.90
48752;DHT22;34544;48.836;9.174;2023-04-06T07:09:19;4.00;99.90
48752;DHT22;34544;48.836;9.174;2023-04-06T07:11:45;4.10;99.90
48752;DHT22;34544;48.836;9.174;2023-04-06T07:14:11;4.30;99.90
48752;DHT22;34544;48.836;9.174;2023-04-06T07:16:37;4.50;99.90
48752;DHT22;34544;48.836;9.174;2023-04-06T07:21:29;5.40;99.90
48752;DHT22;34544;48.836;9.174;2023-04-06T07:23:55;5.80;99.90
48752;DHT22;34544;48.836;9.174;2023-04-06T07:28:47;6.50;99.90
48752;DHT22;34544;48.836;9.174;2023-04-06T07:31:13;6.90;99.90
48752;DHT22;34544;48.836;9.174;2023-04-06T07:33:39;7.30;99.90
48752;DHT22;34544;48.836;9.174;2023-04-06T07:36:05;7.60;99.90
48752;DHT22;34544;48.836;9.174;2023-04-06T07:38:31;7.90;99.90
48752;DHT22;34544;48.836;9.174;2023-04-06T07:40:57;8.20;99.90
48752;DHT22;34544;48.836;9.174;2023-04-06T07:43:23;8.50;99.90
48752;DHT22;34544;48.836;9.174;2023-04-06T07:45:49;8.80;99.90
48752;DHT22;34544;48.836;9.174;2023-04-06T07:48:16;9.00;99.90
48752;DHT22;34544;48.836;9.174;2023-04-06T07:50:41;9.10;99.90
48752;DHT22;34544;48.836;9.174;2023-04-06T07:53:08;9.10;99.90
48752;DHT22;34544;48.836;9.174;2023-04-06T07:55:35;9.30;99.90
48752;DHT22;34544;48.836;9.174;2023-04-06T07:58:01;9.50;99.90
48752;DHT22;34544;48.836;9.174;2023-04-06T08:00:27;9.90;99.90
48752;DHT22;34544;48.836;9.174;2023-04-06T08:02:52;10.30;99.90
48752;DHT22;34544;48.836;9.174;2023-04-06T08:05:18;10.60;99.90
48752;DHT22;34544;48.836;9.174;2023-04-06T08:07:44;10.90;99.90
48752;DHT22;34544;48.836;9.174;2023-04-06T08:10:10;11.10;99.90
48752;DHT22;34544;48.836;9.174;2023-04-06T08:12:35;11.40;99.20
48752;DHT22;34544;48.836;9.174;2023-04-06T08:15:01;11.50;97.90
48752;DHT22;34544;48.836;9.174;2023-04-06T08:17:28;11.60;98.30
48752;DHT22;34544;48.836;9.174;2023-04-06T08:19:55;11.80;97.90
48752;DHT22;34544;48.836;9.174;2023-04-06T08:22:21;12.00;97.60
48752;DHT22;34544;48.836;9.174;2023-04-06T08:24:46;12.30;96.90
48752;DHT22;34544;48.836;9.174;2023-04-06T08:27:12;12.50;96.90
48752;DHT22;34544;48.836;9.174;2023-04-06T08:29:40;12.80;96.20
48752;DHT22;34544;48.836;9.174;2023-04-06T08:32:06;13.00;94.60
48752;DHT22;34544;48.836;9.174;2023-04-06T08:34:33;13.00;94.30
48752;DHT22;34544;48.836;9.174;2023-04-06T08:36:58;13.20;94.80
48752;DHT22;34544;48.836;9.174;2023-04-06T08:39:24;13.40;95.10
48752;DHT22;34544;48.836;9.174;2023-04-06T08:41:52;13.50;93.00
48752;DHT22;34544;48.836;9.174;2023-04-06T08:44:18;13.50;93.80
48752;DHT22;34544;48.836;9.174;2023-04-06T08:46:44;13.50;92.10
48752;DHT22;34544;48.836;9.174;2023-04-06T08:49:10;13.50;92.50
48752;DHT22;34544;48.836;9.174;2023-04-06T08:51:37;13.60;93.20
48752;DHT22;34544;48.836;9.174;2023-04-06T08:54:03;13.80;92.60
48752;DHT22;34544;48.836;9.174;2023-04-06T08:56:29;14.00;91.80
48752;DHT22;34544;48.836;9.174;2023-04-06T08:58:55;14.30;91.10
48752;DHT22;34544;48.836;9.174;2023-04-06T09:01:27;14.60;91.70
48752;DHT22;34544;48.836;9.174;2023-04-06T09:03:59;15.00;91.20
48752;DHT22;34544;48.836;9.174;2023-04-06T09:06:26;15.20;87.90
48752;DHT22;34544;48.836;9.174;2023-04-06T09:08:52;15.30;88.80
48752;DHT22;34544;48.836;9.174;2023-04-06T09:11:19;15.50;90.00
48752;DHT22;34544;48.836;9.174;2023-04-06T09:13:54;15.80;90.10
48752;DHT22;34544;48.836;9.174;2023-04-06T09:16:21;16.10;84.60
48752;DHT22;34544;48.836;9.174;2023-04-06T09:18:47;16.20;84.60
48752;DHT22;34544;48.836;9.174;2023-04-06T09:21:16;16.40;83.60
48752;DHT22;34544;48.836;9.174;2023-04-06T09:23:41;16.60;83.50
48752;DHT22;34544;48.836;9.174;2023-04-06T09:26:15;17.10;81.80
48752;DHT22;34544;48.836;9.174;2023-04-06T09:28:49;17.30;77.60
48752;DHT22;34544;48.836;9.174;2023-04-06T09:31:16;17.40;75.40
48752;DHT22;34544;48.836;9.174;2023-04-06T09:33:46;17.30;77.80
48752;DHT22;34544;48.836;9.174;2023-04-06T09:36:12;17.40;76.60
48752;DHT22;34544;48.836;9.174;2023-04-06T09:39:12;17.80;75.90
48752;DHT22;34544;48.836;9.174;2023-04-06T09:41:36;18.20;77.40
48752;DHT22;34544;48.836;9.174;2023-04-06T09:44:04;18.60;74.50
48752;DHT22;34544;48.836;9.174;2023-04-06T09:46:38;18.50;70.30
48752;DHT22;34544;48.836;9.174;2023-04-06T09:49:06;18.20;72.80
48752;DHT22;34544;48.836;9.174;2023-04-06T09:51:40;18.20;74.20
48752;DHT22;34544;48.836;9.174;2023-04-06T09:54:06;18.40;72.30
48752;DHT22;34544;48.836;9.174;2023-04-06T10:01:58;18.40;71.00
48752;DHT22;34544;48.836;9.174;2023-04-06T10:04:43;18.50;69.60
48752;DHT22;34544;48.836;9.174;2023-04-06T10:07:11;18.50;67.10
48752;DHT22;34544;48.836;9.174;2023-04-06T10:09:38;18.30;67.60
48752;DHT22;34544;48.836;9.174;2023-04-06T10:12:05;18.10;66.70
48752;DHT22;34544;48.836;9.174;2023-04-06T10:14:33;18.10;68.70
48752;DHT22;34544;48.836;9.174;2023-04-06T10:17:03;18.30;68.80
48752;DHT22;34544;48.836;9.174;2023-04-06T10:22:32;19.30;65.50
48752;DHT22;34544;48.836;9.174;2023-04-06T10:25:02;19.50;66.20
48752;DHT22;34544;48.836;9.174;2023-04-06T10:27:28;19.60;63.50
48752;DHT22;34544;48.836;9.174;2023-04-06T10:30:01;19.60;63.10
48752;DHT22;34544;48.836;9.174;2023-04-06T10:32:36;19.00;62.50
48752;DHT22;34544;48.836;9.174;2023-04-06T10:35:10;18.80;62.40
48752;DHT22;34544;48.836;9.174;2023-04-06T10:37:54;18.80;64.40
48752;DHT22;34544;48.836;9.174;2023-04-06T10:40:25;19.40;62.70
48752;DHT22;34544;48.836;9.174;2023-04-06T10:43:06;20.00;64.00
48752;DHT22;34544;48.836;9.174;2023-04-06T10:45:32;20.40;61.60
48752;DHT22;34544;48.836;9.174;2023-04-06T10:47:57;20.80;63.10
48752;DHT22;34544;48.836;9.174;2023-04-06T10:50:23;21.00;61.20
48752;DHT22;34544;48.836;9.174;2023-04-06T10:52:59;21.00;61.10
48752;DHT22;34544;48.836;9.174;2023-04-06T10:55:29;20.80;59.40
48752;DHT22;34544;48.836;9.174;2023-04-06T10:57:55;20.80;61.40
48752;DHT22;34544;48.836;9.174;2023-04-06T11:00:21;20.80;61.70
48752;DHT22;34544;48.836;9.174;2023-04-06T11:02:47;20.90;59.60
48752;DHT22;34544;48.836;9.174;2023-04-06T11:05:14;20.90;58.90
48752;DHT22;34544;48.836;9.174;2023-04-06T11:07:40;20.60;58.60
48752;DHT22;34544;48.836;9.174;2023-04-06T11:10:07;20.50;58.70
48752;DHT22;34544;48.836;9.174;2023-04-06T11:12:33;20.20;58.60
48752;DHT22;34544;48.836;9.174;2023-04-06T11:15:03;20.30;62.60
48752;DHT22;34544;48.836;9.174;2023-04-06T11:17:37;20.70;61.50
48752;DHT22;34544;48.836;9.174;2023-04-06T11:20:04;21.20;59.80
48752;DHT22;34544;48.836;9.174;2023-04-06T11:22:33;21.80;71.10
48752;DHT22;34544;48.836;9.174;2023-04-06T11:25:08;22.00;60.50
48752;DHT22;34544;48.836;9.174;2023-04-06T11:27:34;22.80;58.70
48752;DHT22;34544;48.836;9.174;2023-04-06T11:30:01;23.00;56.80
48752;DHT22;34544;48.836;9.174;2023-04-06T11:32:27;23.10;56.90
48752;DHT22;34544;48.836;9.174;2023-04-06T11:34:53;23.50;57.50
48752;DHT22;34544;48.836;9.174;2023-04-06T11:37:19;23.90;55.90
48752;DHT22;34544;48.836;9.174;2023-04-06T11:39:52;24.20;58.10
48752;DHT22;34544;48.836;9.174;2023-04-06T11:42:27;24.50;55.70
48752;DHT22;34544;48.836;9.174;2023-04-06T11:44:57;24.40;54.80
48752;DHT22;34544;48.836;9.174;2023-04-06T11:47:32;24.60;55.60
48752;DHT22;34544;48.836;9.174;2023-04-06T11:50:06;24.90;56.60
48752;DHT22;34544;48.836;9.174;2023-04-06T11:52:32;25.10;52.90
48752;DHT22;34544;48.836;9.174;2023-04-06T11:54:58;24.60;52.20
48752;DHT22;34544;48.836;9.174;2023-04-06T11:57:24;23.80;52.10
48752;DHT22;34544;48.836;9.174;2023-04-06T11:59:51;23.10;52.40
48752;DHT22;34544;48.836;9.174;2023-04-06T12:02:17;22.60;52.80
48752;DHT22;34544;48.836;9.174;2023-04-06T12:04:43;22.20;53.80
48752;DHT22;34544;48.836;9.174;2023-04-06T12:07:09;22.20;55.60
48752;DHT22;34544;48.836;9.174;2023-04-06T12:09:35;22.20;55.50
48752;DHT22;34544;48.836;9.174;2023-04-06T12:12:02;22.40;56.40
48752;DHT22;34544;48.836;9.174;2023-04-06T12:14:28;23.00;56.30
48752;DHT22;34544;48.836;9.174;2023-04-06T12:16:59;23.80;53.90
48752;DHT22;34544;48.836;9.174;2023-04-06T12:19:24;24.20;56.40
48752;DHT22;34544;48.836;9.174;2023-04-06T12:21:54;24.20;51.80
48752;DHT22;34544;48.836;9.174;2023-04-06T12:24:20;24.40;53.10
48752;DHT22;34544;48.836;9.174;2023-04-06T12:26:45;24.00;50.70
48752;DHT22;34544;48.836;9.174;2023-04-06T12:29:12;23.40;53.40
48752;DHT22;34544;48.836;9.174;2023-04-06T12:31:39;23.10;51.30
48752;DHT22;34544;48.836;9.174;2023-04-06T12:34:06;22.40;51.50
48752;DHT22;34544;48.836;9.174;2023-04-06T12:36:32;22.00;52.10
48752;DHT22;34544;48.836;9.174;2023-04-06T12:38:58;22.40;53.70
48752;DHT22;34544;48.836;9.174;2023-04-06T12:41:26;23.00;53.60
48752;DHT22;34544;48.836;9.174;2023-04-06T12:43:51;23.60;52.10
48752;DHT22;34544;48.836;9.174;2023-04-06T12:46:17;23.90;50.80
48752;DHT22;34544;48.836;9.174;2023-04-06T12:48:43;24.50;52.60
48752;DHT22;34544;48.836;9.174;2023-04-06T12:51:09;25.00;59.90
48752;DHT22;34544;48.836;9.174;2023-04-06T12:53:35;25.10;51.90
48752;DHT22;34544;48.836;9.174;2023-04-06T12:56:02;25.30;57.80
48752;DHT22;34544;48.836;9.174;2023-04-06T12:58:27;25.20;51.60
48752;DHT22;34544;48.836;9.174;2023-04-06T13:00:55;24.90;51.00
48752;DHT22;34544;48.836;9.174;2023-04-06T13:03:21;24.80;50.10
48752;DHT22;34544;48.836;9.174;2023-04-06T13:05:49;24.40;50.10
48752;DHT22;34544;48.836;9.174;2023-04-06T13:08:15;23.90;51.50
48752;DHT22;34544;48.836;9.174;2023-04-06T13:10:46;23.00;50.30
48752;DHT22;34544;48.836;9.174;2023-04-06T13:13:12;22.80;53.80
48752;DHT22;34544;48.836;9.174;2023-04-06T13:15:38;22.90;51.20
48752;DHT22;34544;48.836;9.174;2023-04-06T13:18:04;22.90;51.90
48752;DHT22;34544;48.836;9.174;2023-04-06T13:20:30;23.10;51.40
48752;DHT22;34544;48.836;9.174;2023-04-06T13:22:55;23.00;51.90
48752;DHT22;34544;48.836;9.174;2023-04-06T13:25:21;22.80;60.10
48752;DHT22;34544;48.836;9.174;2023-04-06T13:27:47;22.80;56.90
48752;DHT22;34544;48.836;9.174;2023-04-06T13:30:14;22.70;57.90
48752;DHT22;34544;48.836;9.174;2023-04-06T13:32:40;22.70;53.20
48752;DHT22;34544;48.836;9.174;2023-04-06T13:35:06;22.90;56.00
48752;DHT22;34544;48.836;9.174;2023-04-06T13:37:33;23.40;53.70
48752;DHT22;34544;48.836;9.174;2023-04-06T13:39:58;23.70;53.70
48752;DHT22;34544;48.836;9.174;2023-04-06T13:42:24;23.50;53.50
48752;DHT22;34544;48.836;9.174;2023-04-06T13:44:50;23.60;54.00
48752;DHT22;34544;48.836;9.174;2023-04-06T13:47:16;23.70;55.70
48752;DHT22;34544;48.836;9.174;2023-04-06T13:49:43;24.00;54.50
48752;DHT22;34544;48.836;9.174;2023-04-06T13:52:08;24.40;55.00
48752;DHT22;34544;48.836;9.174;2023-04-06T13:54:35;24.40;50.20
48752;DHT22;34544;48.836;9.174;2023-04-06T13:57:01;24.20;52.40
48752;DHT22;34544;48.836;9.174;2023-04-06T13:59:36;23.70;52.60
48752;DHT22;34544;48.836;9.174;2023-04-06T14:02:03;23.30;52.20
48752;DHT22;34544;48.836;9.174;2023-04-06T14:04:29;23.00;51.70
48752;DHT22;34544;48.836;9.174;2023-04-06T14:06:56;22.60;57.20
48752;DHT22;34544;48.836;9.174;2023-04-06T14:09:22;22.20;53.30
48752;DHT22;34544;48.836;9.174;2023-04-06T14:11:48;21.70;52.00
48752;DHT22;34544;48.836;9.174;2023-04-06T14:14:13;21.30;53.80
48752;DHT22;34544;48.836;9.174;2023-04-06T14:16:40;21.10;52.80
48752;DHT22;34544;48.836;9.174;2023-04-06T14:19:09;21.30;52.90
48752;DHT22;34544;48.836;9.174;2023-04-06T14:21:40;21.50;53.70
48752;DHT22;34544;48.836;9.174;2023-04-06T14:24:07;21.80;52.50
48752;DHT22;34544;48.836;9.174;2023-04-06T14:26:33;21.80;52.70
48752;DHT22;34544;48.836;9.174;2023-04-06T14:29:00;22.10;52.70
48752;DHT22;34544;48.836;9.174;2023-04-06T14:31:25;22.30;51.90
48752;DHT22;34544;48.836;9.174;2023-04-06T14:33:51;22.30;51.80
48752;DHT22;34544;48.836;9.174;2023-04-06T14:36:17;22.60;52.60
48752;DHT22;34544;48.836;9.174;2023-04-06T14:38:43;22.70;51.70
48752;DHT22;34544;48.836;9.174;2023-04-06T14:41:18;22.90;50.90
48752;DHT22;34544;48.836;9.174;2023-04-06T14:43:45;22.90;52.40
48752;DHT22;34544;48.836;9.174;2023-04-06T14:46:11;22.90;52.00
48752;DHT22;34544;48.836;9.174;2023-04-06T14:48:36;23.00;52.30
48752;DHT22;34544;48.836;9.174;2023-04-06T14:51:02;23.00;52.70
48752;DHT22;34544;48.836;9.174;2023-04-06T14:53:28;22.70;51.30
48752;DHT22;34544;48.836;9.174;2023-04-06T14:55:55;22.30;51.20
48752;DHT22;34544;48.836;9.174;2023-04-06T14:58:21;21.90;53.40
48752;DHT22;34544;48.836;9.174;2023-04-06T15:00:48;21.70;52.70
48752;DHT22;34544;48.836;9.174;2023-04-06T15:03:13;21.60;53.40
48752;DHT22;34544;48.836;9.174;2023-04-06T15:05:40;21.50;52.50
48752;DHT22;34544;48.836;9.174;2023-04-06T15:08:05;21.30;53.50
48752;DHT22;34544;48.836;9.174;2023-04-06T15:10:32;21.00;53.10
48752;DHT22;34544;48.836;9.174;2023-04-06T15:12:58;20.60;53.40
48752;DHT22;34544;48.836;9.174;2023-04-06T15:15:24;20.20;53.70
48752;DHT22;34544;48.836;9.174;2023-04-06T15:17:49;19.90;54.30
48752;DHT22;34544;48.836;9.174;2023-04-06T15:20:15;19.60;53.80
48752;DHT22;34544;48.836;9.174;2023-04-06T15:22:41;19.40;54.30
48752;DHT22;34544;48.836;9.174;2023-04-06T15:25:07;19.10;55.10
48752;DHT22;34544;48.836;9.174;2023-04-06T15:27:32;19.00;54.40
48752;DHT22;34544;48.836;9.174;2023-04-06T15:29:58;18.80;54.40
48752;DHT22;34544;48.836;9.174;2023-04-06T15:34:52;18.70;86.80
48752;DHT22;34544;48.836;9.174;2023-04-06T15:37:18;18.80;56.20
48752;DHT22;34544;48.836;9.174;2023-04-06T15:39:44;18.40;65.50
48752;DHT22;34544;48.836;9.174;2023-04-06T15:42:10;18.00;58.30
48752;DHT22;34544;48.836;9.174;2023-04-06T15:44:36;17.70;55.60
48752;DHT22;34544;48.836;9.174;2023-04-06T15:47:01;17.50;56.90
48752;DHT22;34544;48.836;9.174;2023-04-06T15:49:27;17.60;63.80
48752;DHT22;34544;48.836;9.174;2023-04-06T15:51:53;17.50;67.30
48752;DHT22;34544;48.836;9.174;2023-04-06T15:54:18;17.50;68.80